sensor_id;sensor_type;location;lat;lon;timestamp;P1;durP1;ratioP1;P2;durP2;ratioP2
42226;SDS011;27892;52.378;13.122;2024-03-23T00:55:14;2.70;;;2.13;;
42226;SDS011;27892;52.378;13.122;2024-03-23T00:57:39;2.17;;;1.67;;
42226;SDS011;27892;52.378;13.122;2024-03-23T01:00:05;3.47;;;1.67;;
42226;SDS011;27892;52.378;13.122;2024-03-23T01:02:32;3.23;;;1.73;;
42226;SDS011;27892;52.378;13.122;2024-03-23T01:04:58;2.40;;;1.50;;
42226;SDS011;27892;52.378;13.122;2024-03-23T01:07:23;2.57;;;1.60;;
42226;SDS011;27892;52.378;13.122;2024-03-23T01:09:49;2.47;;;1.70;;
42226;SDS011;27892;52.378;13.122;2024-03-23T01:12:15;3.97;;;2.10;;
42226;SDS011;27892;52.378;13.122;2024-03-23T01:14:41;5.60;;;2.33;;
42226;SDS011;27892;52.378;13.122;2024-03-23T01:17:06;6.30;;;2.40;;
42226;SDS011;27892;52.378;13.122;2024-03-23T01:19:32;3.37;;;1.90;;
42226;SDS011;27892;52.378;13.122;2024-03-23T01:21:57;3.37;;;1.90;;
42226;SDS011;27892;52.378;13.122;2024-03-23T01:24:23;3.73;;;2.10;;
42226;SDS011;27892;52.378;13.122;2024-03-23T01:26:49;1.97;;;1.80;;
42226;SDS011;27892;52.378;13.122;2024-03-23T01:29:14;1.70;;;1.60;;
42226;SDS011;27892;52.378;13.122;2024-03-23T01:31:40;3.23;;;1.50;;
42226;SDS011;27892;52.378;13.122;2024-03-23T01:34:06;2.93;;;1.80;;
42226;SDS011;27892;52.378;13.122;2024-03-23T01:36:31;2.03;;;1.87;;
42226;SDS011;27892;52.378;13.122;2024-03-23T01:38:57;2.37;;;1.77;;
42226;SDS011;27892;52.378;13.122;2024-03-23T01:41:23;3.03;;;1.70;;
42226;SDS011;27892;52.378;13.122;2024-03-23T01:43:49;2.43;;;1.60;;
42226;SDS011;27892;52.378;13.122;2024-03-23T01:46:15;4.23;;;1.90;;
42226;SDS011;27892;52.378;13.122;2024-03-23T01:48:42;2.00;;;1.80;;
42226;SDS011;27892;52.378;13.122;2024-03-23T01:51:07;1.77;;;1.57;;
42226;SDS011;27892;52.378;13.122;2024-03-23T01:53:34;1.50;;;1.40;;
42226;SDS011;27892;52.378;13.122;2024-03-23T01:55:59;2.67;;;1.60;;
42226;SDS011;27892;52.378;13.122;2024-03-23T01:58:27;2.07;;;1.50;;
42226;SDS011;27892;52.378;13.122;2024-03-23T02:00:53;2.03;;;1.50;;
42226;SDS011;27892;52.378;13.122;2024-03-23T02:03:25;1.93;;;1.70;;
42226;SDS011;27892;52.378;13.122;2024-03-23T02:05:51;2.60;;;1.47;;
42226;SDS011;27892;52.378;13.122;2024-03-23T02:08:18;1.53;;;1.43;;
42226;SDS011;27892;52.378;13.122;2024-03-23T02:10:46;2.90;;;1.90;;
42226;SDS011;27892;52.378;13.122;2024-03-23T02:13:13;2.50;;;1.67;;
42226;SDS011;27892;52.378;13.122;2024-03-23T02:15:39;2.50;;;1.70;;
42226;SDS011;27892;52.378;13.122;2024-03-23T02:18:06;1.43;;;1.30;;
42226;SDS011;27892;52.378;13.122;2024-03-23T02:20:32;1.50;;;1.40;;
42226;SDS011;27892;52.378;13.122;2024-03-23T02:22:58;1.50;;;1.30;;
42226;SDS011;27892;52.378;13.122;2024-03-23T02:25:23;1.50;;;1.40;;
42226;SDS011;27892;52.378;13.122;2024-03-23T02:27:49;1.63;;;1.47;;
42226;SDS011;27892;52.378;13.122;2024-03-23T02:30:15;1.70;;;1.60;;
42226;SDS011;27892;52.378;13.122;2024-03-23T02:32:41;2.30;;;1.70;;
42226;SDS011;27892;52.378;13.122;2024-03-23T02:35:06;1.57;;;1.47;;
42226;SDS011;27892;52.378;13.122;2024-03-23T02:37:32;1.50;;;1.40;;
42226;SDS011;27892;52.378;13.122;2024-03-23T02:39:58;2.00;;;1.60;;
42226;SDS011;27892;52.378;13.122;2024-03-23T02:42:23;1.50;;;1.40;;
42226;SDS011;27892;52.378;13.122;2024-03-23T02:44:49;1.97;;;1.67;;
42226;SDS011;27892;52.378;13.122;2024-03-23T02:47:15;1.60;;;1.50;;
42226;SDS011;27892;52.378;13.122;2024-03-23T02:49:40;2.57;;;1.30;;
42226;SDS011;27892;52.378;13.122;2024-03-23T02:52:06;2.20;;;1.73;;
42226;SDS011;27892;52.378;13.122;2024-03-23T02:54:32;1.87;;;1.63;;
42226;SDS011;27892;52.378;13.122;2024-03-23T02:56:57;1.40;;;1.30;;
42226;SDS011;27892;52.378;13.122;2024-03-23T02:59:23;2.47;;;1.70;;
42226;SDS011;27892;52.378;13.122;2024-03-23T03:01:49;1.57;;;1.47;;
42226;SDS011;27892;52.378;13.122;2024-03-23T03:04:14;1.87;;;1.53;;
42226;SDS011;27892;52.378;13.122;2024-03-23T03:06:40;2.67;;;1.90;;
42226;SDS011;27892;52.378;13.122;2024-03-23T03:09:06;2.90;;;1.67;;
42226;SDS011;27892;52.378;13.122;2024-03-23T03:11:31;1.70;;;1.60;;
42226;SDS011;27892;52.378;13.122;2024-03-23T03:13:57;2.10;;;1.70;;
42226;SDS011;27892;52.378;13.122;2024-03-23T03:16:25;4.50;;;2.07;;
42226;SDS011;27892;52.378;13.122;2024-03-23T03:18:51;2.13;;;1.83;;
42226;SDS011;27892;52.378;13.122;2024-03-23T03:21:17;2.67;;;1.80;;
42226;SDS011;27892;52.378;13.122;2024-03-23T03:23:44;9.50;;;2.80;;
42226;SDS011;27892;52.378;13.122;2024-03-23T03:26:10;12.20;;;3.30;;
42226;SDS011;27892;52.378;13.122;2024-03-23T03:28:35;7.23;;;2.87;;
42226;SDS011;27892;52.378;13.122;2024-03-23T03:31:01;7.67;;;3.00;;
42226;SDS011;27892;52.378;13.122;2024-03-23T03:33:27;7.70;;;2.73;;
42226;SDS011;27892;52.378;13.122;2024-03-23T03:35:53;11.80;;;3.13;;
42226;SDS011;27892;52.378;13.122;2024-03-23T03:38:19;6.17;;;2.60;;
42226;SDS011;27892;52.378;13.122;2024-03-23T03:40:45;6.37;;;2.80;;
42226;SDS011;27892;52.378;13.122;2024-03-23T03:43:11;5.47;;;2.53;;
42226;SDS011;27892;52.378;13.122;2024-03-23T03:45:36;2.87;;;2.10;;
42226;SDS011;27892;52.378;13.122;2024-03-23T03:48:02;4.43;;;2.53;;
42226;SDS011;27892;52.378;13.122;2024-03-23T03:50:28;6.90;;;2.50;;
42226;SDS011;27892;52.378;13.122;2024-03-23T03:52:53;4.73;;;2.43;;
42226;SDS011;27892;52.378;13.122;2024-03-23T03:55:19;4.80;;;2.60;;
42226;SDS011;27892;52.378;13.122;2024-03-23T03:57:45;3.40;;;2.10;;
42226;SDS011;27892;52.378;13.122;2024-03-23T04:00:10;10.43;;;3.00;;
42226;SDS011;27892;52.378;13.122;2024-03-23T04:02:37;7.30;;;2.83;;
42226;SDS011;27892;52.378;13.122;2024-03-23T04:05:03;6.73;;;2.97;;
42226;SDS011;27892;52.378;13.122;2024-03-23T04:07:29;5.37;;;2.30;;
42226;SDS011;27892;52.378;13.122;2024-03-23T04:09:55;6.93;;;2.57;;
42226;SDS011;27892;52.378;13.122;2024-03-23T04:12:20;8.57;;;2.80;;
42226;SDS011;27892;52.378;13.122;2024-03-23T04:14:46;5.63;;;2.60;;
42226;SDS011;27892;52.378;13.122;2024-03-23T04:17:12;6.17;;;2.30;;
42226;SDS011;27892;52.378;13.122;2024-03-23T04:19:37;4.20;;;2.20;;
42226;SDS011;27892;52.378;13.122;2024-03-23T04:22:03;5.33;;;2.57;;
42226;SDS011;27892;52.378;13.122;2024-03-23T04:24:30;3.77;;;2.10;;
42226;SDS011;27892;52.378;13.122;2024-03-23T04:26:55;6.37;;;2.00;;
42226;SDS011;27892;52.378;13.122;2024-03-23T04:29:21;4.23;;;2.10;;
42226;SDS011;27892;52.378;13.122;2024-03-23T04:31:47;2.43;;;1.80;;
42226;SDS011;27892;52.378;13.122;2024-03-23T04:34:13;3.47;;;2.00;;
42226;SDS011;27892;52.378;13.122;2024-03-23T04:36:39;4.90;;;2.40;;
42226;SDS011;27892;52.378;13.122;2024-03-23T04:39:05;3.50;;;1.80;;
42226;SDS011;27892;52.378;13.122;2024-03-23T04:41:33;4.50;;;1.87;;
42226;SDS011;27892;52.378;13.122;2024-03-23T04:44:00;5.80;;;1.90;;
42226;SDS011;27892;52.378;13.122;2024-03-23T04:46:26;2.60;;;1.97;;
42226;SDS011;27892;52.378;13.122;2024-03-23T04:48:52;2.10;;;1.67;;
42226;SDS011;27892;52.378;13.122;2024-03-23T04:51:21;2.83;;;1.60;;
42226;SDS011;27892;52.378;13.122;2024-03-23T04:53:47;1.77;;;1.67;;
42226;SDS011;27892;52.378;13.122;2024-03-23T04:56:13;2.43;;;1.70;;
42226;SDS011;27892;52.378;13.122;2024-03-23T04:58:40;1.70;;;1.50;;
42226;SDS011;27892;52.378;13.122;2024-03-23T05:01:05;2.03;;;1.50;;
42226;SDS011;27892;52.378;13.122;2024-03-23T05:03:31;2.23;;;1.60;;
42226;SDS011;27892;52.378;13.122;2024-03-23T05:05:57;4.67;;;1.67;;
42226;SDS011;27892;52.378;13.122;2024-03-23T05:08:23;2.67;;;1.60;;
42226;SDS011;27892;52.378;13.122;2024-03-23T05:10:49;2.83;;;1.80;;
42226;SDS011;27892;52.378;13.122;2024-03-23T05:13:14;2.60;;;1.70;;
42226;SDS011;27892;52.378;13.122;2024-03-23T05:15:40;2.80;;;1.67;;
42226;SDS011;27892;52.378;13.122;2024-03-23T05:18:06;2.00;;;1.80;;
42226;SDS011;27892;52.378;13.122;2024-03-23T05:20:32;5.37;;;2.00;;
42226;SDS011;27892;52.378;13.122;2024-03-23T05:22:57;2.97;;;1.80;;
42226;SDS011;27892;52.378;13.122;2024-03-23T05:25:23;2.97;;;1.70;;
42226;SDS011;27892;52.378;13.122;2024-03-23T05:27:49;1.77;;;1.60;;
42226;SDS011;27892;52.378;13.122;2024-03-23T05:30:14;2.20;;;1.60;;
42226;SDS011;27892;52.378;13.122;2024-03-23T05:32:40;3.20;;;1.90;;
42226;SDS011;27892;52.378;13.122;2024-03-23T05:35:10;3.83;;;2.00;;
42226;SDS011;27892;52.378;13.122;2024-03-23T05:37:35;1.90;;;1.60;;
42226;SDS011;27892;52.378;13.122;2024-03-23T05:40:02;2.83;;;1.73;;
42226;SDS011;27892;52.378;13.122;2024-03-23T05:42:28;3.47;;;2.17;;
42226;SDS011;27892;52.378;13.122;2024-03-23T05:44:55;3.20;;;1.77;;
42226;SDS011;27892;52.378;13.122;2024-03-23T05:47:20;2.93;;;1.97;;
42226;SDS011;27892;52.378;13.122;2024-03-23T05:49:46;1.80;;;1.70;;
42226;SDS011;27892;52.378;13.122;2024-03-23T05:52:12;1.70;;;1.60;;
42226;SDS011;27892;52.378;13.122;2024-03-23T05:54:38;2.00;;;1.80;;
42226;SDS011;27892;52.378;13.122;2024-03-23T05:57:04;3.63;;;2.00;;
42226;SDS011;27892;52.378;13.122;2024-03-23T05:59:32;2.37;;;1.97;;
42226;SDS011;27892;52.378;13.122;2024-03-23T06:01:58;1.77;;;1.67;;
42226;SDS011;27892;52.378;13.122;2024-03-23T06:04:23;1.53;;;1.43;;
42226;SDS011;27892;52.378;13.122;2024-03-23T06:06:50;1.73;;;1.63;;
42226;SDS011;27892;52.378;13.122;2024-03-23T06:09:17;1.70;;;1.60;;
42226;SDS011;27892;52.378;13.122;2024-03-23T06:11:44;2.50;;;1.87;;
42226;SDS011;27892;52.378;13.122;2024-03-23T06:14:10;1.97;;;1.50;;
42226;SDS011;27892;52.378;13.122;2024-03-23T06:16:35;2.23;;;1.80;;
42226;SDS011;27892;52.378;13.122;2024-03-23T06:19:01;2.00;;;1.80;;
42226;SDS011;27892;52.378;13.122;2024-03-23T06:21:29;2.80;;;1.77;;
42226;SDS011;27892;52.378;13.122;2024-03-23T06:23:55;3.27;;;1.90;;
42226;SDS011;27892;52.378;13.122;2024-03-23T06:26:21;3.23;;;1.80;;
42226;SDS011;27892;52.378;13.122;2024-03-23T06:28:47;3.07;;;2.03;;
42226;SDS011;27892;52.378;13.122;2024-03-23T06:31:13;1.73;;;1.60;;
42226;SDS011;27892;52.378;13.122;2024-03-23T06:33:38;2.00;;;1.67;;
42226;SDS011;27892;52.378;13.122;2024-03-23T06:36:06;3.90;;;1.90;;
42226;SDS011;27892;52.378;13.122;2024-03-23T06:38:33;4.33;;;2.23;;
42226;SDS011;27892;52.378;13.122;2024-03-23T06:41:02;3.30;;;2.07;;
42226;SDS011;27892;52.378;13.122;2024-03-23T06:43:28;2.60;;;1.77;;
42226;SDS011;27892;52.378;13.122;2024-03-23T06:45:54;3.83;;;1.93;;
42226;SDS011;27892;52.378;13.122;2024-03-23T06:48:20;2.97;;;2.10;;
42226;SDS011;27892;52.378;13.122;2024-03-23T06:50:46;2.60;;;1.70;;
42226;SDS011;27892;52.378;13.122;2024-03-23T06:53:12;2.83;;;1.80;;
42226;SDS011;27892;52.378;13.122;2024-03-23T06:55:38;3.33;;;1.70;;
42226;SDS011;27892;52.378;13.122;2024-03-23T06:58:04;3.00;;;2.00;;
42226;SDS011;27892;52.378;13.122;2024-03-23T07:00:30;2.20;;;1.60;;
42226;SDS011;27892;52.378;13.122;2024-03-23T07:02:57;3.43;;;1.80;;
42226;SDS011;27892;52.378;13.122;2024-03-23T07:05:23;4.47;;;2.00;;
42226;SDS011;27892;52.378;13.122;2024-03-23T07:07:48;5.00;;;2.10;;
42226;SDS011;27892;52.378;13.122;2024-03-23T07:10:14;5.10;;;2.00;;
42226;SDS011;27892;52.378;13.122;2024-03-23T07:12:40;2.90;;;1.80;;
42226;SDS011;27892;52.378;13.122;2024-03-23T07:15:06;2.60;;;1.70;;
42226;SDS011;27892;52.378;13.122;2024-03-23T07:17:33;1.97;;;1.70;;
42226;SDS011;27892;52.378;13.122;2024-03-23T07:20:00;2.70;;;1.80;;
42226;SDS011;27892;52.378;13.122;2024-03-23T07:22:29;2.83;;;1.93;;
42226;SDS011;27892;52.378;13.122;2024-03-23T07:25:01;2.20;;;1.87;;
42226;SDS011;27892;52.378;13.122;2024-03-23T07:27:26;2.03;;;1.80;;
42226;SDS011;27892;52.378;13.122;2024-03-23T07:29:52;6.10;;;2.47;;
42226;SDS011;27892;52.378;13.122;2024-03-23T07:32:18;4.50;;;2.33;;
42226;SDS011;27892;52.378;13.122;2024-03-23T07:34:44;2.23;;;1.90;;
42226;SDS011;27892;52.378;13.122;2024-03-23T07:37:10;3.60;;;2.20;;
42226;SDS011;27892;52.378;13.122;2024-03-23T07:39:35;5.37;;;2.20;;
42226;SDS011;27892;52.378;13.122;2024-03-23T07:42:02;7.90;;;2.70;;
42226;SDS011;27892;52.378;13.122;2024-03-23T07:44:27;5.57;;;2.50;;
42226;SDS011;27892;52.378;13.122;2024-03-23T07:46:53;6.50;;;2.77;;
42226;SDS011;27892;52.378;13.122;2024-03-23T07:49:19;4.23;;;2.40;;
42226;SDS011;27892;52.378;13.122;2024-03-23T07:51:44;4.23;;;2.37;;
42226;SDS011;27892;52.378;13.122;2024-03-23T07:54:10;4.30;;;2.30;;
42226;SDS011;27892;52.378;13.122;2024-03-23T07:56:36;3.63;;;2.70;;
42226;SDS011;27892;52.378;13.122;2024-03-23T07:59:01;5.37;;;2.60;;
42226;SDS011;27892;52.378;13.122;2024-03-23T08:01:28;5.57;;;2.60;;
42226;SDS011;27892;52.378;13.122;2024-03-23T08:03:54;6.70;;;2.57;;
42226;SDS011;27892;52.378;13.122;2024-03-23T08:06:20;4.00;;;2.17;;
42226;SDS011;27892;52.378;13.122;2024-03-23T08:08:54;3.60;;;2.07;;
42226;SDS011;27892;52.378;13.122;2024-03-23T08:11:30;2.60;;;2.13;;
42226;SDS011;27892;52.378;13.122;2024-03-23T08:13:56;3.30;;;2.10;;
42226;SDS011;27892;52.378;13.122;2024-03-23T08:16:23;4.33;;;2.20;;
42226;SDS011;27892;52.378;13.122;2024-03-23T08:18:52;4.50;;;2.20;;
42226;SDS011;27892;52.378;13.122;2024-03-23T08:21:18;3.07;;;1.90;;
42226;SDS011;27892;52.378;13.122;2024-03-23T08:23:44;4.10;;;2.03;;
42226;SDS011;27892;52.378;13.122;2024-03-23T08:26:10;3.67;;;2.20;;
42226;SDS011;27892;52.378;13.122;2024-03-23T08:28:37;3.53;;;2.00;;
42226;SDS011;27892;52.378;13.122;2024-03-23T08:31:04;3.93;;;2.00;;
42226;SDS011;27892;52.378;13.122;2024-03-23T08:33:32;4.17;;;1.93;;
42226;SDS011;27892;52.378;13.122;2024-03-23T08:35:58;3.77;;;2.03;;
42226;SDS011;27892;52.378;13.122;2024-03-23T08:38:28;2.70;;;1.87;;
42226;SDS011;27892;52.378;13.122;2024-03-23T08:43:29;1.77;;;1.67;;
42226;SDS011;27892;52.378;13.122;2024-03-23T08:48:34;5.47;;;1.90;;
42226;SDS011;27892;52.378;13.122;2024-03-23T08:51:06;2.07;;;1.60;;
42226;SDS011;27892;52.378;13.122;2024-03-23T08:53:34;3.27;;;1.67;;
42226;SDS011;27892;52.378;13.122;2024-03-23T08:56:00;2.30;;;1.60;;
42226;SDS011;27892;52.378;13.122;2024-03-23T08:58:27;1.70;;;1.60;;
42226;SDS011;27892;52.378;13.122;2024-03-23T09:00:54;1.60;;;1.50;;
42226;SDS011;27892;52.378;13.122;2024-03-23T09:03:22;2.60;;;1.70;;
42226;SDS011;27892;52.378;13.122;2024-03-23T09:05:51;3.03;;;1.70;;
42226;SDS011;27892;52.378;13.122;2024-03-23T09:08:17;1.43;;;1.33;;
42226;SDS011;27892;52.378;13.122;2024-03-23T09:10:43;2.43;;;1.60;;
42226;SDS011;27892;52.378;13.122;2024-03-23T09:13:09;2.87;;;1.60;;
42226;SDS011;27892;52.378;13.122;2024-03-23T09:15:35;3.97;;;1.73;;
42226;SDS011;27892;52.378;13.122;2024-03-23T09:18:02;1.70;;;1.57;;
42226;SDS011;27892;52.378;13.122;2024-03-23T09:20:28;1.70;;;1.60;;
42226;SDS011;27892;52.378;13.122;2024-03-23T09:22:54;2.20;;;1.70;;
42226;SDS011;27892;52.378;13.122;2024-03-23T09:25:20;2.30;;;1.67;;
42226;SDS011;27892;52.378;13.122;2024-03-23T09:27:46;2.97;;;1.77;;
42226;SDS011;27892;52.378;13.122;2024-03-23T09:30:12;4.10;;;1.80;;
42226;SDS011;27892;52.378;13.122;2024-03-23T09:32:39;2.43;;;1.60;;
42226;SDS011;27892;52.378;13.122;2024-03-23T09:35:06;2.93;;;1.97;;
42226;SDS011;27892;52.378;13.122;2024-03-23T09:37:32;5.47;;;2.20;;
42226;SDS011;27892;52.378;13.122;2024-03-23T09:39:58;2.97;;;2.20;;
42226;SDS011;27892;52.378;13.122;2024-03-23T09:42:23;2.60;;;1.93;;
42226;SDS011;27892;52.378;13.122;2024-03-23T09:44:50;4.67;;;2.20;;
42226;SDS011;27892;52.378;13.122;2024-03-23T09:47:17;3.17;;;1.97;;
42226;SDS011;27892;52.378;13.122;2024-03-23T09:49:43;3.93;;;2.33;;
42226;SDS011;27892;52.378;13.122;2024-03-23T09:52:09;4.77;;;2.00;;
42226;SDS011;27892;52.378;13.122;2024-03-23T09:54:35;3.80;;;1.97;;
42226;SDS011;27892;52.378;13.122;2024-03-23T09:57:01;5.87;;;2.33;;
42226;SDS011;27892;52.378;13.122;2024-03-23T09:59:27;4.47;;;2.10;;
42226;SDS011;27892;52.378;13.122;2024-03-23T10:01:54;2.07;;;1.80;;
42226;SDS011;27892;52.378;13.122;2024-03-23T10:04:39;5.57;;;2.10;;
42226;SDS011;27892;52.378;13.122;2024-03-23T10:07:12;4.23;;;1.93;;
42226;SDS011;27892;52.378;13.122;2024-03-23T10:09:39;3.13;;;1.80;;
42226;SDS011;27892;52.378;13.122;2024-03-23T10:12:12;2.87;;;1.87;;
42226;SDS011;27892;52.378;13.122;2024-03-23T10:14:42;2.37;;;1.97;;
42226;SDS011;27892;52.378;13.122;2024-03-23T10:17:12;4.77;;;2.60;;
42226;SDS011;27892;52.378;13.122;2024-03-23T10:19:40;3.80;;;2.30;;
42226;SDS011;27892;52.378;13.122;2024-03-23T10:22:08;5.50;;;2.30;;
42226;SDS011;27892;52.378;13.122;2024-03-23T10:24:34;2.53;;;2.10;;
42226;SDS011;27892;52.378;13.122;2024-03-23T10:27:00;5.20;;;2.50;;
42226;SDS011;27892;52.378;13.122;2024-03-23T10:29:25;5.50;;;2.60;;
42226;SDS011;27892;52.378;13.122;2024-03-23T10:31:53;5.80;;;3.53;;
42226;SDS011;27892;52.378;13.122;2024-03-23T10:34:26;4.20;;;2.30;;
42226;SDS011;27892;52.378;13.122;2024-03-23T10:36:55;3.80;;;2.30;;
42226;SDS011;27892;52.378;13.122;2024-03-23T10:39:23;2.90;;;2.17;;
42226;SDS011;27892;52.378;13.122;2024-03-23T10:41:52;3.57;;;2.07;;
42226;SDS011;27892;52.378;13.122;2024-03-23T10:44:21;2.37;;;1.67;;
42226;SDS011;27892;52.378;13.122;2024-03-23T10:46:50;2.13;;;1.93;;
42226;SDS011;27892;52.378;13.122;2024-03-23T10:49:15;1.73;;;1.63;;
42226;SDS011;27892;52.378;13.122;2024-03-23T10:51:41;3.43;;;1.73;;
42226;SDS011;27892;52.378;13.122;2024-03-23T10:54:07;1.60;;;1.50;;
42226;SDS011;27892;52.378;13.122;2024-03-23T10:56:38;1.80;;;1.57;;
42226;SDS011;27892;52.378;13.122;2024-03-23T10:59:05;2.20;;;1.67;;
42226;SDS011;27892;52.378;13.122;2024-03-23T11:01:32;2.43;;;1.90;;
42226;SDS011;27892;52.378;13.122;2024-03-23T11:03:58;3.17;;;1.60;;
42226;SDS011;27892;52.378;13.122;2024-03-23T11:06:33;2.10;;;1.63;;
42226;SDS011;27892;52.378;13.122;2024-03-23T11:09:03;2.10;;;1.50;;
42226;SDS011;27892;52.378;13.122;2024-03-23T11:11:28;1.47;;;1.40;;
42226;SDS011;27892;52.378;13.122;2024-03-23T11:13:57;1.70;;;1.40;;
42226;SDS011;27892;52.378;13.122;2024-03-23T11:16:24;2.30;;;1.67;;
42226;SDS011;27892;52.378;13.122;2024-03-23T11:22:03;1.90;;;1.70;;
42226;SDS011;27892;52.378;13.122;2024-03-23T11:24:30;2.67;;;1.70;;
42226;SDS011;27892;52.378;13.122;2024-03-23T11:26:56;2.77;;;2.00;;
42226;SDS011;27892;52.378;13.122;2024-03-23T11:29:25;2.70;;;1.90;;
42226;SDS011;27892;52.378;13.122;2024-03-23T11:31:52;5.13;;;2.20;;
42226;SDS011;27892;52.378;13.122;2024-03-23T11:34:18;3.57;;;1.87;;
42226;SDS011;27892;52.378;13.122;2024-03-23T11:36:45;2.73;;;2.00;;
42226;SDS011;27892;52.378;13.122;2024-03-23T11:39:15;4.00;;;2.17;;
42226;SDS011;27892;52.378;13.122;2024-03-23T11:42:00;3.00;;;2.07;;
42226;SDS011;27892;52.378;13.122;2024-03-23T11:44:26;4.93;;;2.00;;
42226;SDS011;27892;52.378;13.122;2024-03-23T11:46:52;2.63;;;1.70;;
42226;SDS011;27892;52.378;13.122;2024-03-23T11:49:22;3.23;;;1.80;;
42226;SDS011;27892;52.378;13.122;2024-03-23T11:51:48;2.60;;;1.73;;
42226;SDS011;27892;52.378;13.122;2024-03-23T11:54:14;2.70;;;1.83;;
42226;SDS011;27892;52.378;13.122;2024-03-23T11:56:40;3.57;;;2.20;;
42226;SDS011;27892;52.378;13.122;2024-03-23T11:59:34;2.00;;;1.80;;
42226;SDS011;27892;52.378;13.122;2024-03-23T12:02:09;3.13;;;2.07;;
42226;SDS011;27892;52.378;13.122;2024-03-23T12:04:36;2.37;;;1.83;;
42226;SDS011;27892;52.378;13.122;2024-03-23T12:10:03;3.40;;;1.60;;
42226;SDS011;27892;52.378;13.122;2024-03-23T12:12:31;3.97;;;1.80;;
42226;SDS011;27892;52.378;13.122;2024-03-23T12:15:07;3.60;;;1.83;;
42226;SDS011;27892;52.378;13.122;2024-03-23T12:17:33;4.97;;;2.10;;
42226;SDS011;27892;52.378;13.122;2024-03-23T12:20:01;1.90;;;1.60;;
42226;SDS011;27892;52.378;13.122;2024-03-23T12:22:27;3.90;;;2.20;;
42226;SDS011;27892;52.378;13.122;2024-03-23T12:24:54;3.17;;;2.20;;
42226;SDS011;27892;52.378;13.122;2024-03-23T12:27:20;5.03;;;2.30;;
42226;SDS011;27892;52.378;13.122;2024-03-23T12:29:45;4.80;;;2.50;;
42226;SDS011;27892;52.378;13.122;2024-03-23T12:32:15;5.93;;;3.13;;
42226;SDS011;27892;52.378;13.122;2024-03-23T12:34:41;3.80;;;2.43;;
42226;SDS011;27892;52.378;13.122;2024-03-23T12:37:07;2.60;;;1.80;;
42226;SDS011;27892;52.378;13.122;2024-03-23T12:39:33;2.90;;;1.80;;
42226;SDS011;27892;52.378;13.122;2024-03-23T12:42:00;5.97;;;2.03;;
42226;SDS011;27892;52.378;13.122;2024-03-23T12:44:29;3.47;;;1.90;;
42226;SDS011;27892;52.378;13.122;2024-03-23T12:46:55;3.47;;;1.97;;
42226;SDS011;27892;52.378;13.122;2024-03-23T12:49:20;2.70;;;1.60;;
42226;SDS011;27892;52.378;13.122;2024-03-23T12:51:53;1.83;;;1.50;;
42226;SDS011;27892;52.378;13.122;2024-03-23T12:54:20;3.20;;;1.80;;
42226;SDS011;27892;52.378;13.122;2024-03-23T12:56:46;3.33;;;1.73;;
42226;SDS011;27892;52.378;13.122;2024-03-23T12:59:12;3.23;;;1.93;;
42226;SDS011;27892;52.378;13.122;2024-03-23T13:01:38;3.13;;;1.77;;
42226;SDS011;27892;52.378;13.122;2024-03-23T13:04:04;4.73;;;1.90;;
42226;SDS011;27892;52.378;13.122;2024-03-23T13:06:30;3.57;;;1.70;;
42226;SDS011;27892;52.378;13.122;2024-03-23T13:08:59;5.20;;;2.30;;
42226;SDS011;27892;52.378;13.122;2024-03-23T13:11:26;1.97;;;1.80;;
42226;SDS011;27892;52.378;13.122;2024-03-23T13:13:52;4.37;;;1.90;;
42226;SDS011;27892;52.378;13.122;2024-03-23T13:16:17;7.80;;;2.50;;
42226;SDS011;27892;52.378;13.122;2024-03-23T13:18:43;4.87;;;2.00;;
42226;SDS011;27892;52.378;13.122;2024-03-23T13:21:09;7.67;;;2.37;;
42226;SDS011;27892;52.378;13.122;2024-03-23T13:23:34;6.30;;;2.70;;
42226;SDS011;27892;52.378;13.122;2024-03-23T13:26:01;4.60;;;2.30;;
42226;SDS011;27892;52.378;13.122;2024-03-23T13:28:26;3.47;;;1.70;;
42226;SDS011;27892;52.378;13.122;2024-03-23T13:30:55;4.27;;;2.10;;
42226;SDS011;27892;52.378;13.122;2024-03-23T13:33:23;6.40;;;2.40;;
42226;SDS011;27892;52.378;13.122;2024-03-23T13:35:51;3.97;;;1.90;;
42226;SDS011;27892;52.378;13.122;2024-03-23T13:38:17;6.93;;;2.40;;
42226;SDS011;27892;52.378;13.122;2024-03-23T13:43:22;4.30;;;2.10;;
42226;SDS011;27892;52.378;13.122;2024-03-23T13:45:48;6.77;;;3.13;;
42226;SDS011;27892;52.378;13.122;2024-03-23T13:48:16;5.77;;;2.67;;
42226;SDS011;27892;52.378;13.122;2024-03-23T13:50:44;6.73;;;2.80;;
42226;SDS011;27892;52.378;13.122;2024-03-23T13:53:09;4.80;;;2.50;;
42226;SDS011;27892;52.378;13.122;2024-03-23T13:55:35;4.53;;;2.20;;
42226;SDS011;27892;52.378;13.122;2024-03-23T13:58:01;5.83;;;3.27;;
42226;SDS011;27892;52.378;13.122;2024-03-23T14:00:27;5.83;;;3.17;;
42226;SDS011;27892;52.378;13.122;2024-03-23T14:02:53;5.97;;;3.20;;
42226;SDS011;27892;52.378;13.122;2024-03-23T14:05:18;4.20;;;2.83;;
42226;SDS011;27892;52.378;13.122;2024-03-23T14:07:44;5.70;;;3.10;;
42226;SDS011;27892;52.378;13.122;2024-03-23T14:10:09;9.63;;;3.53;;
42226;SDS011;27892;52.378;13.122;2024-03-23T14:12:38;3.97;;;2.90;;
42226;SDS011;27892;52.378;13.122;2024-03-23T14:15:07;4.73;;;3.03;;
42226;SDS011;27892;52.378;13.122;2024-03-23T14:17:33;4.70;;;3.17;;
42226;SDS011;27892;52.378;13.122;2024-03-23T14:19:59;8.60;;;4.10;;
42226;SDS011;27892;52.378;13.122;2024-03-23T14:22:30;5.17;;;3.47;;
42226;SDS011;27892;52.378;13.122;2024-03-23T14:24:57;4.60;;;3.30;;
42226;SDS011;27892;52.378;13.122;2024-03-23T14:27:23;7.40;;;3.20;;
42226;SDS011;27892;52.378;13.122;2024-03-23T14:29:49;4.17;;;2.70;;
42226;SDS011;27892;52.378;13.122;2024-03-23T14:32:14;7.40;;;3.53;;
42226;SDS011;27892;52.378;13.122;2024-03-23T14:34:41;8.30;;;3.20;;
42226;SDS011;27892;52.378;13.122;2024-03-23T14:37:07;3.97;;;2.10;;
42226;SDS011;27892;52.378;13.122;2024-03-23T14:39:33;2.70;;;2.20;;
42226;SDS011;27892;52.378;13.122;2024-03-23T14:42:04;3.63;;;2.00;;
42226;SDS011;27892;52.378;13.122;2024-03-23T14:44:31;3.37;;;1.60;;
42226;SDS011;27892;52.378;13.122;2024-03-23T14:46:57;2.97;;;1.87;;
42226;SDS011;27892;52.378;13.122;2024-03-23T14:49:22;2.00;;;1.80;;
42226;SDS011;27892;52.378;13.122;2024-03-23T14:51:49;2.53;;;1.70;;
42226;SDS011;27892;52.378;13.122;2024-03-23T14:54:15;2.83;;;1.80;;
42226;SDS011;27892;52.378;13.122;2024-03-23T14:56:40;1.90;;;1.63;;
42226;SDS011;27892;52.378;13.122;2024-03-23T14:59:06;3.07;;;1.70;;
42226;SDS011;27892;52.378;13.122;2024-03-23T15:01:32;2.33;;;1.80;;
42226;SDS011;27892;52.378;13.122;2024-03-23T15:03:59;2.50;;;1.70;;
42226;SDS011;27892;52.378;13.122;2024-03-23T15:06:25;2.07;;;1.63;;
42226;SDS011;27892;52.378;13.122;2024-03-23T15:08:51;2.47;;;1.57;;
42226;SDS011;27892;52.378;13.122;2024-03-23T15:11:16;1.87;;;1.50;;
42226;SDS011;27892;52.378;13.122;2024-03-23T15:13:44;2.53;;;1.80;;
42226;SDS011;27892;52.378;13.122;2024-03-23T15:16:16;3.23;;;2.20;;
42226;SDS011;27892;52.378;13.122;2024-03-23T15:18:45;5.90;;;2.87;;
42226;SDS011;27892;52.378;13.122;2024-03-23T15:21:11;2.40;;;2.20;;
42226;SDS011;27892;52.378;13.122;2024-03-23T15:23:37;2.90;;;1.93;;
42226;SDS011;27892;52.378;13.122;2024-03-23T15:26:03;2.70;;;1.70;;
42226;SDS011;27892;52.378;13.122;2024-03-23T15:28:30;1.77;;;1.67;;
42226;SDS011;27892;52.378;13.122;2024-03-23T15:31:08;1.97;;;1.83;;
42226;SDS011;27892;52.378;13.122;2024-03-23T15:33:37;4.80;;;1.90;;
42226;SDS011;27892;52.378;13.122;2024-03-23T15:36:04;3.73;;;2.00;;
42226;SDS011;27892;52.378;13.122;2024-03-23T15:38:33;3.50;;;2.03;;